📊 Raw Sensor Data
Showing records 35201 to 35225 of 84,873 total
| ID | Distance (ft) | Battery V | Battery A | Int Temp (°F) | Int Humid (%) | Ext Temp (°F) | Solar V | RSSI | SNR | Time Stamp |
|---|---|---|---|---|---|---|---|---|---|---|
| 49685 | 14.8 | 3.68 | -5 | 57 | 46 | 57 | 0.00 | -68 | 8 | 08/19/2025 11:30 PM |
| 49684 | 14.8 | 3.69 | -5 | 58 | 46 | 59 | 0.00 | -69 | 8 | 08/19/2025 11:15 PM |
| 49683 | 14.8 | 3.68 | -5 | 59 | 46 | 61 | 0.00 | -69 | 8 | 08/19/2025 11:00 PM |
| 49682 | 14.8 | 3.70 | -5 | 59 | 47 | 61 | 0.00 | -68 | 8 | 08/19/2025 10:45 PM |
| 49681 | 14.7 | 3.83 | -5 | 60 | 47 | 61 | 0.00 | -68 | 8 | 08/19/2025 10:30 PM |
| 49680 | 14.7 | 3.68 | -5 | 61 | 47 | 62 | 0.00 | -67 | 8 | 08/19/2025 10:15 PM |
| 49679 | 14.7 | 3.70 | -5 | 62 | 48 | 63 | 0.10 | -69 | 8 | 08/19/2025 10:00 PM |
| 49678 | 14.7 | 3.70 | -5 | 63 | 48 | 64 | 0.00 | -68 | 8 | 08/19/2025 09:45 PM |
| 49677 | 14.7 | 3.70 | -5 | 64 | 49 | 65 | 0.00 | -69 | 8 | 08/19/2025 09:30 PM |
| 49676 | 14.8 | 3.83 | -5 | 65 | 50 | 65 | 0.00 | -69 | 9 | 08/19/2025 09:15 PM |
| 49675 | 14.9 | 3.84 | -5 | 66 | 51 | 67 | 0.00 | -69 | 8 | 08/19/2025 09:00 PM |
| 49674 | 14.9 | 3.70 | -5 | 68 | 52 | 68 | 0.00 | -69 | 8 | 08/19/2025 08:45 PM |
| 49673 | 14.9 | 3.70 | -5 | 69 | 54 | 69 | 0.00 | -69 | 8 | 08/19/2025 08:30 PM |
| 49672 | 14.9 | 3.84 | -5 | 71 | 56 | 70 | 0.10 | -70 | 8 | 08/19/2025 08:15 PM |
| 49671 | 14.9 | 3.70 | -6 | 75 | 57 | 72 | 2.10 | -69 | 8 | 08/19/2025 08:00 PM |
| 49670 | 15.0 | 3.71 | -5 | 81 | 56 | 76 | 4.50 | -69 | 8 | 08/19/2025 07:45 PM |
| 49669 | 15.0 | 3.71 | 0 | 86 | 54 | 80 | 4.50 | -71 | 8 | 08/19/2025 07:30 PM |
| 49668 | 15.0 | 3.89 | 0 | 90 | 54 | 83 | 4.50 | -70 | 9 | 08/19/2025 07:15 PM |
| 49667 | 15.1 | 3.78 | -14 | 94 | 53 | 85 | 4.50 | -70 | 8 | 08/19/2025 07:00 PM |
| 49666 | 15.1 | 3.91 | 31 | 97 | 52 | 87 | 4.60 | -70 | 8 | 08/19/2025 06:45 PM |
| 49665 | 15.1 | 4.03 | 0 | 99 | 51 | 89 | 5.10 | -69 | 8 | 08/19/2025 06:30 PM |
| 49664 | 15.1 | 3.82 | 0 | 101 | 50 | 91 | 5.10 | -69 | 8 | 08/19/2025 06:15 PM |
| 49663 | 15.2 | 3.82 | 0 | 102 | 50 | 92 | 5.10 | -69 | 7 | 08/19/2025 06:00 PM |
| 49662 | 15.2 | 4.05 | 0 | 104 | 49 | 91 | 5.10 | -70 | 8 | 08/19/2025 05:45 PM |
| 49661 | 15.2 | 4.07 | 0 | 106 | 48 | 94 | 5.10 | -69 | 7 | 08/19/2025 05:30 PM |